Time;durP1;ratioP1;P1;durP2;ratioP2;P2;SDS_P1;SDS_P2;PMS_P1;PMS_P2;Temp;Humidity;BMP_temperature;BMP_pressure;BME280_temperature;BME280_humidity;BME280_pressure;Samples;Min_cycle;Max_cycle;Signal;HPM_P1;HPM_P2
2021/04/08 00:01:51;;;;;;;9.60;1.53;;;6.90;87.50;;;;;;5062506;28;21202;-76
2021/04/08 00:04:19;;;;;;;8.77;1.65;;;6.90;88.40;;;;;;5061527;28;20960;-76
2021/04/08 00:06:45;;;;;;;12.82;1.80;;;6.90;89.10;;;;;;5059074;28;20443;-76
2021/04/08 00:09:11;;;;;;;11.65;1.85;;;7.00;89.10;;;;;;5055165;28;20766;-76
2021/04/08 00:11:38;;;;;;;9.07;1.67;;;7.00;88.10;;;;;;5060625;28;20429;-75
2021/04/08 00:14:04;;;;;;;11.43;2.00;;;6.90;89.10;;;;;;5045829;28;20423;-76
2021/04/08 00:16:31;;;;;;;11.00;1.50;;;7.00;89.70;;;;;;5065759;28;20487;-76
2021/04/08 00:18:57;;;;;;;7.65;1.67;;;7.00;86.80;;;;;;5058485;28;20434;-77
2021/04/08 00:21:24;;;;;;;10.03;1.60;;;6.90;85.00;;;;;;5059435;28;20833;-77
2021/04/08 00:23:51;;;;;;;10.05;1.48;;;6.90;84.00;;;;;;5063730;28;20454;-77
2021/04/08 00:26:17;;;;;;;10.23;1.30;;;6.90;83.50;;;;;;5063239;28;20451;-76
2021/04/08 00:28:44;;;;;;;8.63;1.50;;;6.90;82.50;;;;;;5042059;28;20986;-78
2021/04/08 00:31:10;;;;;;;9.85;1.42;;;6.80;83.40;;;;;;5061872;28;20414;-76
2021/04/08 00:33:36;;;;;;;7.20;1.10;;;6.90;82.50;;;;;;5061137;28;20800;-77
2021/04/08 00:36:03;;;;;;;7.45;1.30;;;6.90;83.30;;;;;;5061219;28;20407;-77
2021/04/08 00:38:30;;;;;;;6.90;1.40;;;6.90;84.30;;;;;;5063728;28;20413;-75
2021/04/08 00:40:57;;;;;;;7.68;1.45;;;6.90;82.80;;;;;;5065776;28;20435;-75
2021/04/08 00:43:24;;;;;;;14.45;2.05;;;6.90;82.20;;;;;;5056637;28;20421;-75
2021/04/08 00:45:50;;;;;;;7.10;1.38;;;6.90;81.70;;;;;;5065356;28;20423;-74
2021/04/08 00:48:16;;;;;;;10.43;1.73;;;7.00;82.10;;;;;;5044553;28;20431;-76
2021/04/08 00:50:43;;;;;;;12.65;1.60;;;7.00;82.00;;;;;;5063070;28;20420;-76
2021/04/08 00:53:13;;;;;;;14.88;1.63;;;6.90;81.70;;;;;;5054424;28;20409;-76
2021/04/08 00:55:42;;;;;;;9.02;1.77;;;7.00;81.80;;;;;;5042931;28;20497;-75
2021/04/08 00:58:10;;;;;;;10.65;1.63;;;7.00;81.40;;;;;;5056199;28;20426;-76
2021/04/08 01:00:39;;;;;;;10.90;1.57;;;7.00;81.80;;;;;;5058692;28;20755;-75
2021/04/08 01:03:06;;;;;;;12.93;1.90;;;7.00;82.20;;;;;;5064224;28;20900;-76
2021/04/08 01:05:34;;;;;;;13.20;1.70;;;7.00;83.30;;;;;;5046318;28;20431;-76
2021/04/08 01:08:01;;;;;;;14.80;1.80;;;7.00;82.90;;;;;;5063832;28;20407;-76
2021/04/08 01:10:28;;;;;;;12.18;1.88;;;7.00;84.60;;;;;;5059606;28;20479;-76
2021/04/08 01:12:57;;;;;;;13.07;2.05;;;7.00;84.10;;;;;;5042220;28;20425;-76
2021/04/08 01:15:25;;;;;;;13.33;1.67;;;7.10;85.00;;;;;;5059468;28;20452;-75
2021/04/08 01:17:58;;;;;;;11.93;1.63;;;7.10;85.30;;;;;;5062413;28;20426;-75
2021/04/08 01:20:46;;;;;;;8.60;1.60;;;7.10;85.20;;;;;;5040577;28;20448;-75
2021/04/08 01:23:39;;;;;;;11.75;1.63;;;7.20;84.30;;;;;;5065804;28;20488;-75
2021/04/08 01:26:54;;;;;;;12.65;1.80;;;7.30;84.40;;;;;;5061072;28;20499;-75
2021/04/08 01:29:33;;;;;;;12.90;1.80;;;7.30;82.90;;;;;;5057379;28;20516;-77
2021/04/08 01:32:03;;;;;;;9.68;1.70;;;7.20;80.60;;;;;;5057474;28;20412;-75
2021/04/08 01:34:32;;;;;;;11.35;1.67;;;7.20;81.10;;;;;;5064869;28;20453;-77
2021/04/08 01:37:04;;;;;;;11.30;1.70;;;7.20;81.30;;;;;;5065469;28;20414;-76
2021/04/08 01:39:30;;;;;;;9.80;1.58;;;7.30;81.70;;;;;;5060944;28;20420;-76
2021/04/08 01:41:58;;;;;;;10.52;1.52;;;7.30;81.00;;;;;;5041662;28;20449;-76
2021/04/08 01:44:26;;;;;;;10.05;1.70;;;7.30;81.30;;;;;;5043658;28;20519;-75
2021/04/08 01:47:00;;;;;;;11.65;1.48;;;7.40;81.90;;;;;;5058939;28;20522;-75
2021/04/08 01:49:30;;;;;;;11.77;1.58;;;7.40;81.60;;;;;;5053882;28;20943;-76
2021/04/08 01:51:58;;;;;;;8.40;1.60;;;7.40;82.10;;;;;;5062025;28;20418;-75
2021/04/08 01:54:28;;;;;;;12.70;1.60;;;7.40;81.10;;;;;;5038022;28;20520;-75
2021/04/08 01:56:58;;;;;;;12.13;2.00;;;7.50;82.20;;;;;;5049656;28;20425;-75
2021/04/08 01:59:25;;;;;;;12.77;2.10;;;7.50;83.10;;;;;;5059159;28;20598;-73
2021/04/08 02:01:54;;;;;;;12.17;1.97;;;7.50;82.60;;;;;;5044840;28;20927;-77
2021/04/08 02:04:22;;;;;;;11.50;1.65;;;7.50;82.80;;;;;;5056107;28;20413;-76
2021/04/08 02:06:51;;;;;;;12.70;1.70;;;7.50;83.20;;;;;;5056243;28;20463;-75
2021/04/08 02:09:18;;;;;;;13.05;1.90;;;7.50;83.00;;;;;;5041863;28;20433;-75
2021/04/08 02:11:47;;;;;;;10.27;1.97;;;7.50;84.60;;;;;;5063682;28;20417;-75
2021/04/08 02:14:15;;;;;;;10.53;2.00;;;7.50;85.00;;;;;;5057428;28;20772;-76
2021/04/08 02:16:44;;;;;;;11.53;1.73;;;7.50;85.20;;;;;;5061078;28;20503;-76
2021/04/08 02:19:12;;;;;;;10.75;1.90;;;7.50;84.90;;;;;;5060203;28;20518;-76
2021/04/08 02:21:40;;;;;;;10.85;2.00;;;7.50;85.20;;;;;;5060388;28;20417;-76
2021/04/08 02:24:08;;;;;;;10.27;1.98;;;7.40;84.50;;;;;;5063035;28;20416;-75
2021/04/08 02:26:34;;;;;;;12.17;1.67;;;7.40;83.60;;;;;;5042900;28;20968;-75
2021/04/08 02:29:03;;;;;;;11.27;1.63;;;7.40;82.90;;;;;;5052023;28;20913;-75
2021/04/08 02:31:31;;;;;;;13.60;1.52;;;7.30;82.40;;;;;;5063188;28;20470;-76
2021/04/08 02:33:57;;;;;;;9.27;1.45;;;7.30;81.50;;;;;;5058925;28;20428;-75
2021/04/08 02:36:24;;;;;;;11.77;1.80;;;7.30;80.40;;;;;;5057305;28;21016;-75
2021/04/08 02:38:51;;;;;;;9.77;1.52;;;7.30;80.70;;;;;;5061828;28;20551;-77
2021/04/08 02:41:18;;;;;;;8.98;1.52;;;7.30;80.60;;;;;;5060836;28;20781;-76
2021/04/08 02:43:45;;;;;;;12.00;1.67;;;7.40;80.30;;;;;;5066542;28;20433;-75
2021/04/08 02:46:11;;;;;;;10.30;1.50;;;7.30;80.10;;;;;;5058056;28;20420;-75
2021/04/08 02:48:38;;;;;;;11.10;1.75;;;7.30;78.90;;;;;;5067203;28;20415;-76
2021/04/08 02:51:09;;;;;;;10.68;1.80;;;7.30;78.80;;;;;;5065004;28;20504;-77
2021/04/08 02:53:42;;;;;;;7.80;1.50;;;7.30;78.40;;;;;;5068749;28;20880;-77
2021/04/08 02:56:16;;;;;;;7.38;1.38;;;7.30;78.50;;;;;;5064209;28;20450;-77
2021/04/08 02:58:44;;;;;;;8.00;1.53;;;7.30;78.00;;;;;;5059276;28;20431;-74
2021/04/08 03:01:12;;;;;;;8.90;1.15;;;7.30;77.70;;;;;;5063854;28;20884;-77
2021/04/08 03:03:43;;;;;;;9.88;1.40;;;7.30;76.00;;;;;;5040163;28;20622;-77
2021/04/08 03:06:12;;;;;;;9.32;1.30;;;7.30;76.00;;;;;;5063186;28;20908;-75
2021/04/08 03:08:41;;;;;;;7.70;1.20;;;7.20;75.20;;;;;;5048309;28;21473;-77
2021/04/08 03:11:14;;;;;;;9.05;1.30;;;7.20;74.70;;;;;;5061440;28;20852;-77
2021/04/08 03:13:43;;;;;;;6.18;1.20;;;7.10;75.00;;;;;;5068007;28;20415;-77
2021/04/08 03:16:17;;;;;;;8.10;1.50;;;7.10;74.00;;;;;;5056314;28;20462;-78
2021/04/08 03:18:45;;;;;;;9.47;1.30;;;7.00;74.10;;;;;;5063908;28;20888;-77
2021/04/08 03:21:13;;;;;;;7.25;1.40;;;7.00;75.30;;;;;;5065084;28;20468;-75
2021/04/08 03:23:40;;;;;;;7.35;1.50;;;7.00;75.60;;;;;;5057838;28;20428;-75
2021/04/08 03:26:07;;;;;;;11.52;1.42;;;7.00;75.70;;;;;;5063648;28;20618;-75
2021/04/08 03:28:37;;;;;;;6.80;1.45;;;6.90;76.50;;;;;;5061131;28;20423;-75
2021/04/08 03:31:05;;;;;;;10.43;1.35;;;6.90;76.40;;;;;;5054049;28;20906;-75
2021/04/08 03:33:33;;;;;;;10.07;1.42;;;6.90;76.80;;;;;;5058447;28;20899;-76
2021/04/08 03:36:01;;;;;;;10.20;1.55;;;6.90;77.10;;;;;;5068390;28;20507;-76
2021/04/08 03:38:28;;;;;;;8.85;1.40;;;6.90;77.80;;;;;;5062979;28;20423;-76
2021/04/08 03:40:58;;;;;;;8.45;1.55;;;6.90;77.50;;;;;;5062460;28;20419;-76
2021/04/08 03:43:26;;;;;;;8.52;1.58;;;6.90;77.40;;;;;;5064662;28;20433;-76
2021/04/08 03:45:58;;;;;;;8.63;1.50;;;6.90;76.80;;;;;;5061844;28;20453;-76
2021/04/08 03:48:25;;;;;;;9.13;1.60;;;6.90;76.40;;;;;;5061018;28;20493;-75
2021/04/08 03:50:52;;;;;;;8.30;1.40;;;6.90;76.70;;;;;;5055945;28;20451;-75
2021/04/08 03:53:19;;;;;;;6.47;1.20;;;6.90;75.90;;;;;;5060797;28;20420;-74
2021/04/08 03:55:47;;;;;;;7.60;1.20;;;6.90;75.50;;;;;;5063999;28;20427;-75
2021/04/08 03:58:14;;;;;;;6.93;1.30;;;6.90;75.70;;;;;;5057786;28;22129;-78
2021/04/08 04:00:41;;;;;;;9.20;1.88;;;6.90;75.60;;;;;;5056783;28;20413;-78
2021/04/08 04:03:13;;;;;;;8.40;1.67;;;6.90;75.60;;;;;;5067919;28;20476;-75
2021/04/08 04:05:41;;;;;;;8.70;1.45;;;7.00;75.30;;;;;;5038840;28;20518;-75
2021/04/08 04:08:09;;;;;;;7.97;1.40;;;7.00;74.80;;;;;;5043003;28;20435;-77
2021/04/08 04:10:37;;;;;;;5.63;1.50;;;7.00;74.80;;;;;;5060839;28;20411;-77
2021/04/08 04:13:04;;;;;;;7.10;1.50;;;7.00;74.80;;;;;;5044213;28;20416;-76
2021/04/08 04:15:32;;;;;;;6.38;1.40;;;6.90;73.90;;;;;;5057218;28;20428;-77
2021/04/08 04:17:59;;;;;;;8.67;1.97;;;6.90;74.20;;;;;;5040865;28;20571;-77
2021/04/08 04:20:27;;;;;;;6.13;1.60;;;6.90;74.00;;;;;;5068646;28;20477;-76
2021/04/08 04:22:54;;;;;;;6.72;1.95;;;7.00;74.40;;;;;;5059235;28;20431;-78
2021/04/08 04:25:21;;;;;;;4.93;1.60;;;7.00;74.60;;;;;;5066267;28;20481;-76
2021/04/08 04:27:47;;;;;;;8.07;1.80;;;7.00;73.00;;;;;;5063111;28;20427;-76
2021/04/08 04:30:15;;;;;;;5.07;1.63;;;6.90;72.70;;;;;;5058083;28;20452;-77
2021/04/08 04:32:41;;;;;;;9.70;1.80;;;6.90;72.70;;;;;;5065662;28;20465;-77
2021/04/08 04:35:09;;;;;;;6.57;1.90;;;6.90;72.20;;;;;;5067208;28;20620;-77
2021/04/08 04:37:36;;;;;;;8.40;1.90;;;6.90;72.40;;;;;;5058704;28;20415;-76
2021/04/08 04:40:04;;;;;;;8.73;1.88;;;6.90;72.20;;;;;;5065258;28;20412;-76
2021/04/08 04:42:30;;;;;;;7.28;1.60;;;6.90;71.80;;;;;;5060961;28;20437;-76
2021/04/08 04:44:57;;;;;;;9.35;2.10;;;6.90;72.50;;;;;;5044185;28;20916;-77
2021/04/08 04:47:23;;;;;;;8.47;1.97;;;6.90;71.70;;;;;;5063330;28;20498;-77
2021/04/08 04:49:50;;;;;;;5.38;1.73;;;6.90;71.80;;;;;;5063448;28;20423;-76
2021/04/08 04:52:17;;;;;;;7.93;1.83;;;6.90;71.50;;;;;;5060762;28;20990;-77
2021/04/08 04:54:45;;;;;;;6.43;2.00;;;7.00;71.40;;;;;;5059249;28;20424;-77
2021/04/08 04:57:11;;;;;;;7.63;2.00;;;7.00;71.70;;;;;;5059470;28;20408;-77
2021/04/08 04:59:37;;;;;;;7.20;2.10;;;6.90;71.60;;;;;;5058325;28;20443;-76
2021/04/08 05:02:04;;;;;;;7.00;2.00;;;7.00;72.10;;;;;;5043502;28;21157;-76
2021/04/08 05:04:31;;;;;;;6.72;1.90;;;7.00;71.90;;;;;;5057121;28;20420;-74
2021/04/08 05:06:57;;;;;;;7.93;2.20;;;7.00;71.10;;;;;;5054860;28;20424;-75
2021/04/08 05:09:23;;;;;;;10.67;2.20;;;7.00;71.60;;;;;;5057477;28;20422;-74
2021/04/08 05:11:52;;;;;;;9.57;2.40;;;7.00;71.30;;;;;;5058992;28;20534;-74
2021/04/08 05:14:18;;;;;;;7.28;1.90;;;7.00;71.00;;;;;;5042034;28;20429;-74
2021/04/08 05:16:44;;;;;;;9.85;2.10;;;7.00;72.10;;;;;;5057680;28;20907;-74
2021/04/08 05:19:11;;;;;;;8.02;2.40;;;7.00;71.70;;;;;;5057169;28;20409;-75
2021/04/08 05:21:37;;;;;;;16.45;2.80;;;7.10;71.70;;;;;;5059445;28;20474;-75
2021/04/08 05:24:04;;;;;;;13.25;2.55;;;7.10;71.30;;;;;;5060483;28;20425;-74
2021/04/08 05:26:30;;;;;;;11.63;2.60;;;7.10;70.60;;;;;;5054979;28;20821;-74
2021/04/08 05:28:58;;;;;;;8.95;2.40;;;7.00;70.50;;;;;;5037462;28;20415;-75
2021/04/08 05:31:24;;;;;;;10.05;2.55;;;7.00;70.50;;;;;;5057958;28;20762;-74
2021/04/08 05:33:51;;;;;;;13.63;3.03;;;7.00;70.20;;;;;;5058669;28;20505;-74
2021/04/08 05:36:17;;;;;;;6.68;2.40;;;7.00;70.30;;;;;;5059772;28;20422;-74
2021/04/08 05:38:43;;;;;;;9.93;2.20;;;7.00;70.10;;;;;;5057450;28;20472;-74
2021/04/08 05:41:10;;;;;;;10.82;2.65;;;7.00;69.50;;;;;;5038072;28;20423;-73
2021/04/08 05:43:37;;;;;;;13.38;2.70;;;7.00;69.30;;;;;;5044524;28;20421;-76
2021/04/08 05:46:08;;;;;;;9.93;2.78;;;6.90;69.80;;;;;;5039120;28;20899;-76
2021/04/08 05:48:35;;;;;;;11.68;2.60;;;6.90;69.80;;;;;;5038528;28;20420;-74
2021/04/08 05:51:01;;;;;;;9.05;2.60;;;7.00;69.30;;;;;;5043671;28;20445;-74
2021/04/08 05:53:28;;;;;;;7.77;2.10;;;7.00;68.70;;;;;;5041644;28;20415;-75
2021/04/08 05:55:54;;;;;;;8.18;2.40;;;7.00;67.90;;;;;;5040977;28;20445;-76
2021/04/08 05:58:21;;;;;;;8.20;2.40;;;7.00;67.70;;;;;;5040480;28;20439;-75
2021/04/08 06:00:47;;;;;;;9.73;2.50;;;7.00;67.50;;;;;;5043396;28;20420;-75
2021/04/08 06:03:14;;;;;;;6.13;2.10;;;7.00;67.60;;;;;;5042846;28;21010;-75
2021/04/08 06:05:41;;;;;;;8.45;2.38;;;7.00;67.50;;;;;;5041234;28;20414;-77
2021/04/08 06:08:07;;;;;;;9.50;2.13;;;7.00;66.90;;;;;;5040807;28;20515;-74
2021/04/08 06:10:34;;;;;;;11.18;2.33;;;7.00;66.50;;;;;;5038008;28;20425;-74
2021/04/08 06:13:01;;;;;;;9.02;2.20;;;7.00;66.00;;;;;;5042868;28;20769;-75
2021/04/08 06:15:29;;;;;;;13.55;2.88;;;7.00;65.50;;;;;;5042469;28;20434;-75
2021/04/08 06:17:55;;;;;;;7.40;2.53;;;7.00;65.90;;;;;;5034271;28;20423;-75
2021/04/08 06:20:24;;;;;;;6.68;2.25;;;7.00;65.70;;;;;;5040336;28;20422;-75
2021/04/08 06:22:51;;;;;;;11.50;2.50;;;7.10;65.60;;;;;;5046519;28;20429;-76
2021/04/08 06:25:17;;;;;;;8.38;2.50;;;7.10;65.30;;;;;;5042887;28;20441;-75
2021/04/08 06:27:44;;;;;;;7.38;2.58;;;7.10;63.90;;;;;;5044127;28;20418;-76
2021/04/08 06:30:11;;;;;;;7.18;2.20;;;7.10;63.40;;;;;;5042050;28;20424;-74
2021/04/08 06:32:38;;;;;;;10.73;2.80;;;7.10;62.60;;;;;;5037646;28;20484;-74
2021/04/08 06:35:06;;;;;;;8.15;2.40;;;7.20;62.60;;;;;;5039708;28;20413;-74
2021/04/08 06:37:36;;;;;;;8.25;2.17;;;7.20;62.20;;;;;;5042990;28;20431;-75
2021/04/08 06:40:03;;;;;;;5.97;2.40;;;7.30;62.10;;;;;;5046188;28;21099;-75
2021/04/08 06:42:31;;;;;;;7.00;2.27;;;7.30;61.00;;;;;;5056963;28;20778;-76
2021/04/08 06:44:59;;;;;;;7.55;2.20;;;7.40;60.80;;;;;;5041755;28;20440;-77
2021/04/08 06:47:30;;;;;;;5.95;2.13;;;7.40;61.40;;;;;;5063304;28;20895;-75
2021/04/08 06:50:02;;;;;;;5.65;2.05;;;7.50;61.20;;;;;;5052407;28;20417;-77
2021/04/08 06:52:29;;;;;;;3.88;2.00;;;7.50;59.30;;;;;;5067534;28;20411;-74
2021/04/08 06:54:58;;;;;;;5.05;2.10;;;7.60;58.30;;;;;;5060736;28;20507;-74
2021/04/08 06:57:24;;;;;;;6.00;2.10;;;7.60;57.30;;;;;;5058350;28;20439;-75
2021/04/08 06:59:51;;;;;;;5.93;2.03;;;7.70;56.70;;;;;;5060796;28;20415;-75
2021/04/08 07:02:20;;;;;;;8.02;2.20;;;7.80;56.10;;;;;;5060427;28;20427;-76
2021/04/08 07:04:47;;;;;;;5.30;2.15;;;7.80;56.20;;;;;;5061257;28;20420;-75
2021/04/08 07:07:14;;;;;;;4.57;2.30;;;7.90;56.20;;;;;;5058021;28;20426;-75
2021/04/08 07:09:41;;;;;;;5.20;2.10;;;8.00;54.40;;;;;;5064011;28;20449;-77
2021/04/08 07:12:10;;;;;;;7.13;2.33;;;8.10;53.70;;;;;;5046606;28;21137;-74
2021/04/08 07:14:37;;;;;;;4.85;2.10;;;8.10;53.60;;;;;;5038214;28;20424;-76
2021/04/08 07:17:08;;;;;;;8.07;2.47;;;8.20;52.70;;;;;;5062895;28;20417;-77
2021/04/08 07:19:35;;;;;;;7.13;2.55;;;8.20;52.40;;;;;;5064507;28;20417;-75
2021/04/08 07:22:01;;;;;;;4.43;2.00;;;8.30;53.00;;;;;;5062683;28;20454;-74
2021/04/08 07:24:31;;;;;;;6.72;2.22;;;8.30;53.20;;;;;;5064015;28;20419;-76
2021/04/08 07:27:01;;;;;;;4.00;2.33;;;8.30;53.00;;;;;;5050700;28;21133;-77
2021/04/08 07:29:52;;;;;;;5.15;2.17;;;8.40;53.20;;;;;;5068424;28;20426;-76
2021/04/08 07:32:25;;;;;;;4.10;2.27;;;8.40;53.10;;;;;;5065660;28;20419;-76
2021/04/08 07:34:54;;;;;;;5.60;2.53;;;8.40;53.30;;;;;;5063838;28;20522;-76
2021/04/08 07:37:25;;;;;;;5.80;2.20;;;8.40;53.30;;;;;;5062350;28;20419;-76
2021/04/08 07:39:53;;;;;;;7.40;3.00;;;8.40;53.80;;;;;;5067274;28;20540;-76
2021/04/08 07:42:24;;;;;;;6.30;2.90;;;8.50;54.60;;;;;;5066398;28;20427;-76
2021/04/08 07:44:52;;;;;;;6.97;3.10;;;8.50;55.60;;;;;;5072595;28;20460;-77
2021/04/08 07:47:28;;;;;;;7.40;2.85;;;8.50;55.60;;;;;;5064442;28;20427;-74
2021/04/08 07:49:56;;;;;;;6.50;3.20;;;8.50;55.60;;;;;;5051112;28;20481;-75
2021/04/08 07:52:26;;;;;;;6.22;2.90;;;8.60;54.80;;;;;;5058614;28;20459;-74
2021/04/08 07:54:57;;;;;;;7.90;3.23;;;8.60;54.60;;;;;;5049974;28;20610;-77
2021/04/08 07:57:24;;;;;;;7.25;3.00;;;8.50;55.20;;;;;;5066372;28;20506;-76
2021/04/08 07:59:52;;;;;;;5.90;3.30;;;8.60;55.80;;;;;;5061632;28;20478;-77
2021/04/08 08:02:24;;;;;;;6.78;3.38;;;8.60;55.30;;;;;;5050068;28;20420;-75
2021/04/08 08:04:50;;;;;;;8.18;3.35;;;8.60;54.40;;;;;;5068444;28;20787;-77
2021/04/08 08:07:27;;;;;;;6.57;3.40;;;8.60;54.30;;;;;;5040755;28;20497;-76
2021/04/08 08:09:54;;;;;;;8.70;4.00;;;8.60;54.50;;;;;;5048950;28;20417;-74
2021/04/08 08:12:20;;;;;;;6.32;3.55;;;8.60;54.10;;;;;;5041500;28;20444;-76
2021/04/08 08:14:47;;;;;;;6.75;3.40;;;8.70;54.20;;;;;;5048991;28;20411;-76
2021/04/08 08:17:15;;;;;;;7.53;3.70;;;8.60;54.10;;;;;;5063825;28;20423;-78
2021/04/08 08:19:44;;;;;;;9.30;4.18;;;8.60;54.80;;;;;;5060958;28;20429;-77
2021/04/08 08:22:18;;;;;;;8.60;3.90;;;8.60;55.00;;;;;;5055964;28;20857;-77
2021/04/08 08:24:53;;;;;;;7.88;4.07;;;8.60;55.40;;;;;;5061351;28;20777;-76
2021/04/08 08:27:20;;;;;;;8.27;3.90;;;8.70;55.20;;;;;;5045485;28;20776;-76
2021/04/08 08:29:56;;;;;;;10.48;4.10;;;8.70;55.60;;;;;;5044655;28;20419;-76
2021/04/08 08:32:24;;;;;;;9.30;4.07;;;8.70;55.80;;;;;;5063909;28;20430;-76
2021/04/08 08:34:51;;;;;;;7.37;3.93;;;8.70;55.60;;;;;;5040106;28;20416;-76
2021/04/08 08:37:20;;;;;;;9.35;4.63;;;8.70;55.70;;;;;;5065903;28;21886;-76
2021/04/08 08:39:48;;;;;;;9.07;4.40;;;8.80;56.40;;;;;;5057951;28;20474;-77
2021/04/08 08:42:17;;;;;;;9.68;4.88;;;8.80;57.30;;;;;;5053596;28;20836;-76
2021/04/08 08:44:44;;;;;;;11.90;5.47;;;8.80;57.50;;;;;;5047092;28;20425;-76
2021/04/08 08:47:14;;;;;;;9.23;5.28;;;8.90;57.40;;;;;;5061561;28;20885;-76
2021/04/08 08:49:43;;;;;;;12.27;5.30;;;8.90;57.90;;;;;;5061077;28;20421;-76
2021/04/08 08:52:13;;;;;;;8.48;5.90;;;9.00;58.00;;;;;;5069159;28;20415;-76
2021/04/08 08:54:39;;;;;;;9.65;5.90;;;9.00;56.50;;;;;;5064819;28;20411;-76
2021/04/08 08:57:07;;;;;;;8.90;5.60;;;9.00;56.30;;;;;;5048052;28;20428;-76
2021/04/08 08:59:33;;;;;;;9.60;5.85;;;9.00;56.70;;;;;;5062080;28;20752;-76
2021/04/08 09:02:00;;;;;;;8.60;5.65;;;9.10;57.20;;;;;;5044272;28;20932;-78
2021/04/08 09:04:28;;;;;;;9.82;5.63;;;9.10;56.30;;;;;;5048698;28;20474;-75
2021/04/08 09:06:58;;;;;;;9.55;5.68;;;9.20;55.10;;;;;;5062114;28;20428;-75
2021/04/08 09:09:26;;;;;;;9.87;5.20;;;9.20;55.50;;;;;;5062709;28;20431;-76
2021/04/08 09:11:53;;;;;;;7.35;5.40;;;9.20;55.10;;;;;;5060934;28;21513;-76
2021/04/08 09:14:20;;;;;;;8.60;5.60;;;9.30;55.00;;;;;;5059738;28;20419;-75
2021/04/08 09:16:48;;;;;;;8.95;5.57;;;9.30;54.30;;;;;;5059185;28;20455;-77
2021/04/08 09:19:24;;;;;;;9.40;5.70;;;9.20;54.30;;;;;;5050120;28;20514;-76
2021/04/08 09:21:52;;;;;;;6.97;5.10;;;9.20;55.40;;;;;;5044368;28;20486;-74
2021/04/08 09:24:21;;;;;;;8.00;5.63;;;9.20;56.20;;;;;;5061509;28;20419;-75
2021/04/08 09:26:51;;;;;;;16.25;6.38;;;9.10;56.30;;;;;;5060137;28;20435;-75
2021/04/08 09:29:44;;;;;;;10.52;5.78;;;9.10;56.70;;;;;;5057628;28;20468;-76
2021/04/08 09:32:21;;;;;;;10.32;5.75;;;9.10;57.10;;;;;;5038476;28;20918;-76
2021/04/08 09:35:10;;;;;;;10.30;5.97;;;9.10;57.50;;;;;;5059975;28;20432;-76
2021/04/08 09:38:25;;;;;;;11.32;5.70;;;9.20;58.30;;;;;;5042158;28;20431;-76
2021/04/08 09:40:58;;;;;;;10.02;5.60;;;9.20;58.30;;;;;;5055073;28;20452;-75
2021/04/08 09:43:26;;;;;;;9.35;5.90;;;9.20;58.50;;;;;;5061156;28;20431;-75
2021/04/08 09:46:02;;;;;;;11.80;6.07;;;9.20;58.10;;;;;;5062378;28;20506;-74
2021/04/08 09:48:49;;;;;;;11.27;6.35;;;9.30;59.20;;;;;;5059527;28;20515;-77
2021/04/08 09:51:27;;;;;;;9.43;6.00;;;9.40;58.80;;;;;;5053931;28;20416;-78
2021/04/08 09:54:06;;;;;;;10.30;6.22;;;9.40;57.70;;;;;;5062142;28;20421;-77
2021/04/08 09:56:55;;;;;;;9.85;5.53;;;9.40;58.70;;;;;;5058935;28;20414;-77
2021/04/08 09:59:23;;;;;;;11.18;5.93;;;9.50;58.80;;;;;;5059906;28;20498;-77
2021/04/08 10:01:51;;;;;;;11.43;5.20;;;9.50;59.80;;;;;;5059430;28;20756;-76
2021/04/08 10:04:20;;;;;;;9.65;4.80;;;9.60;59.80;;;;;;5037189;28;20424;-77
2021/04/08 10:06:58;;;;;;;6.88;4.10;;;9.70;59.10;;;;;;5062083;28;20884;-77
2021/04/08 10:09:24;;;;;;;8.02;3.97;;;9.70;56.50;;;;;;5043458;28;20475;-77
2021/04/08 10:11:52;;;;;;;8.60;4.93;;;9.60;56.50;;;;;;5069988;28;20772;-77
2021/04/08 10:14:23;;;;;;;17.00;5.00;;;9.60;58.90;;;;;;5057336;28;20462;-80
2021/04/08 10:17:04;;;;;;;9.50;5.03;;;9.70;59.80;;;;;;5058678;28;20445;-76
2021/04/08 10:19:33;;;;;;;12.65;4.90;;;9.70;59.60;;;;;;5063223;28;21261;-76
2021/04/08 10:21:59;;;;;;;11.13;4.83;;;9.70;60.00;;;;;;5043068;28;20504;-74
2021/04/08 10:24:32;;;;;;;7.05;4.60;;;9.60;60.50;;;;;;5058681;28;20442;-75
2021/04/08 10:26:59;;;;;;;9.50;4.70;;;9.60;60.10;;;;;;5048524;28;20787;-76
2021/04/08 10:29:33;;;;;;;10.57;4.53;;;9.60;59.50;;;;;;5043233;28;20447;-75
2021/04/08 10:32:01;;;;;;;10.00;4.70;;;9.50;59.40;;;;;;5065693;28;20450;-76
2021/04/08 10:34:34;;;;;;;12.80;4.55;;;9.50;60.80;;;;;;5066228;28;20858;-77
2021/04/08 10:37:01;;;;;;;8.30;4.50;;;9.60;61.10;;;;;;5044600;28;21109;-79
2021/04/08 10:39:29;;;;;;;9.82;5.22;;;9.60;61.10;;;;;;5062269;28;20428;-78
2021/04/08 10:41:57;;;;;;;6.57;4.07;;;9.60;60.70;;;;;;5060648;28;20432;-75
2021/04/08 10:44:27;;;;;;;10.87;4.40;;;9.70;58.90;;;;;;5066203;28;20442;-76
2021/04/08 10:46:55;;;;;;;12.77;3.90;;;9.80;57.40;;;;;;5065775;28;20926;-76
2021/04/08 10:49:26;;;;;;;6.35;3.33;;;9.80;57.40;;;;;;5046191;28;20435;-78
2021/04/08 10:51:53;;;;;;;10.85;3.78;;;9.90;57.00;;;;;;5044676;28;20417;-77
2021/04/08 10:54:20;;;;;;;8.20;3.70;;;9.90;56.10;;;;;;5059414;28;20417;-77
2021/04/08 10:56:48;;;;;;;6.93;3.20;;;10.00;57.10;;;;;;5043965;28;20500;-76
2021/04/08 10:59:19;;;;;;;8.43;3.20;;;10.00;56.80;;;;;;5059015;28;20502;-77
2021/04/08 11:01:47;;;;;;;7.40;2.90;;;10.10;57.00;;;;;;5063339;28;20430;-76
2021/04/08 11:04:13;;;;;;;5.75;2.33;;;10.20;56.20;;;;;;5064274;28;20777;-76
2021/04/08 11:06:40;;;;;;;5.18;2.17;;;10.30;54.30;;;;;;5063752;28;20903;-77
2021/04/08 11:09:07;;;;;;;4.50;1.80;;;10.40;52.50;;;;;;5050629;28;20476;-77
2021/04/08 11:11:35;;;;;;;5.55;2.00;;;10.50;52.10;;;;;;5049706;28;20788;-77
2021/04/08 11:14:01;;;;;;;3.40;2.10;;;10.50;51.90;;;;;;5057726;28;20413;-76
2021/04/08 11:16:29;;;;;;;4.22;1.85;;;10.50;52.30;;;;;;5066278;28;20510;-77
2021/04/08 11:18:59;;;;;;;4.13;1.80;;;10.50;52.10;;;;;;5042397;28;20417;-77
2021/04/08 11:21:26;;;;;;;4.25;1.70;;;10.50;52.80;;;;;;5044610;28;20433;-77
2021/04/08 11:23:54;;;;;;;3.05;1.35;;;10.60;52.80;;;;;;5064563;28;20423;-76
2021/04/08 11:26:21;;;;;;;3.10;1.50;;;10.60;52.30;;;;;;5052136;28;20525;-78
2021/04/08 11:28:54;;;;;;;3.20;1.60;;;10.80;52.00;;;;;;5064409;28;20518;-79
2021/04/08 11:31:22;;;;;;;3.13;1.40;;;10.80;50.80;;;;;;5066851;28;20986;-78
2021/04/08 11:33:54;;;;;;;2.35;1.10;;;10.90;49.30;;;;;;5048952;28;20419;-77
2021/04/08 11:36:23;;;;;;;2.85;1.20;;;11.00;48.40;;;;;;5044958;28;20495;-77
2021/04/08 11:38:50;;;;;;;3.65;1.10;;;11.10;49.10;;;;;;5063505;28;20899;-78
2021/04/08 11:41:17;;;;;;;4.10;1.60;;;11.10;47.70;;;;;;5043576;28;20455;-78
2021/04/08 11:43:47;;;;;;;3.90;1.75;;;11.10;48.70;;;;;;5063299;28;20439;-77
2021/04/08 11:46:28;;;;;;;4.03;1.75;;;11.10;50.00;;;;;;5050171;28;20972;-77
2021/04/08 11:48:55;;;;;;;7.93;2.50;;;11.20;51.70;;;;;;5059716;28;20423;-76
2021/04/08 11:51:25;;;;;;;9.13;2.23;;;11.20;51.80;;;;;;5062025;28;20416;-77
2021/04/08 11:53:53;;;;;;;22.43;2.47;;;11.20;51.80;;;;;;5066565;28;21133;-78
2021/04/08 11:56:29;;;;;;;7.90;1.85;;;11.30;52.20;;;;;;5061213;28;20426;-77
2021/04/08 11:59:07;;;;;;;4.35;1.80;;;11.40;51.90;;;;;;5063474;28;20423;-77
2021/04/08 12:01:35;;;;;;;5.30;1.58;;;11.50;50.40;;;;;;5065514;28;20794;-78
2021/04/08 12:04:14;;;;;;;4.68;1.75;;;11.50;50.70;;;;;;5059028;28;20856;-76
2021/04/08 12:06:44;;;;;;;7.15;2.10;;;11.40;50.70;;;;;;5060396;28;22268;-77
2021/04/08 12:09:10;;;;;;;5.40;1.80;;;11.50;51.80;;;;;;5063739;28;20446;-78
2021/04/08 12:11:49;;;;;;;6.70;1.90;;;11.40;51.50;;;;;;5046526;28;20430;-77
2021/04/08 12:14:15;;;;;;;8.32;2.08;;;11.40;52.30;;;;;;5062840;28;20987;-77
2021/04/08 12:16:41;;;;;;;5.60;2.30;;;11.60;53.40;;;;;;5059775;28;20882;-76
2021/04/08 12:19:08;;;;;;;9.68;2.63;;;11.70;52.40;;;;;;5042185;28;20429;-78
2021/04/08 12:21:35;;;;;;;11.68;2.20;;;11.80;52.30;;;;;;5044208;28;20540;-78
2021/04/08 12:24:11;;;;;;;9.52;2.00;;;11.80;51.90;;;;;;5045177;28;20492;-78
2021/04/08 12:26:41;;;;;;;12.05;2.58;;;11.70;50.70;;;;;;5065051;28;20423;-77
2021/04/08 12:29:07;;;;;;;6.35;2.47;;;11.70;51.60;;;;;;5059751;28;20435;-78
2021/04/08 12:31:34;;;;;;;4.17;2.50;;;11.80;53.00;;;;;;5048331;28;20419;-75
2021/04/08 12:34:02;;;;;;;5.07;2.63;;;11.80;53.20;;;;;;5061163;28;21293;-76
2021/04/08 12:36:30;;;;;;;21.80;3.03;;;11.80;52.90;;;;;;5061858;28;20420;-77
2021/04/08 12:38:57;;;;;;;5.40;2.30;;;11.80;52.80;;;;;;5045898;28;20431;-74
2021/04/08 12:41:24;;;;;;;8.05;2.22;;;11.90;51.80;;;;;;5064461;28;20439;-75
2021/04/08 12:43:50;;;;;;;4.53;2.10;;;11.90;51.80;;;;;;5049919;28;20419;-76
2021/04/08 12:46:17;;;;;;;12.80;2.70;;;11.90;51.90;;;;;;5048069;28;20733;-75
2021/04/08 12:48:43;;;;;;;5.70;2.00;;;11.90;51.30;;;;;;5061788;28;20802;-75
2021/04/08 12:51:10;;;;;;;5.70;2.00;;;11.90;52.30;;;;;;5058907;28;20843;-76
2021/04/08 12:53:36;;;;;;;16.87;2.50;;;11.90;52.60;;;;;;5060785;28;20504;-76
2021/04/08 12:56:03;;;;;;;5.78;1.48;;;12.00;53.10;;;;;;5063133;28;20419;-76
2021/04/08 12:58:30;;;;;;;6.85;1.30;;;12.00;50.60;;;;;;5064851;28;20515;-76
2021/04/08 13:00:56;;;;;;;3.58;1.33;;;12.00;49.30;;;;;;5067568;28;20428;-77
2021/04/08 13:03:24;;;;;;;4.00;1.33;;;11.90;47.90;;;;;;5061652;28;21072;-77